createdAt,value
2023-01-21T00:01:34.172Z,25.58
2023-01-21T00:04:04.066Z,27.73
2023-01-21T00:06:32.268Z,27.30
2023-01-21T00:09:14.080Z,28.05
2023-01-21T00:11:44.418Z,23.27
2023-01-21T00:14:12.399Z,27.13
2023-01-21T00:16:40.354Z,20.77
2023-01-21T00:19:09.021Z,24.88
2023-01-21T00:21:36.815Z,23.30
2023-01-21T00:24:05.425Z,27.17
2023-01-21T00:26:33.968Z,19.60
2023-01-21T00:29:01.959Z,26.08
2023-01-21T00:31:32.721Z,25.70
2023-01-21T00:34:02.231Z,22.17
2023-01-21T00:36:31.892Z,25.02
2023-01-21T00:39:03.274Z,31.05
2023-01-21T00:44:16.515Z,28.95
2023-01-21T00:47:06.726Z,28.85
2023-01-21T00:52:42.494Z,26.38
2023-01-21T00:55:18.431Z,29.02
2023-01-21T00:57:49.652Z,28.20
2023-01-21T01:00:25.606Z,25.98
2023-01-21T01:02:56.200Z,30.75
2023-01-21T01:05:26.145Z,31.75
2023-01-21T01:08:04.760Z,33.30
2023-01-21T01:10:38.638Z,28.60
2023-01-21T01:13:14.721Z,32.20
2023-01-21T01:15:43.185Z,32.78
2023-01-21T01:18:12.723Z,34.58
2023-01-21T01:20:49.202Z,31.15
2023-01-21T01:23:17.862Z,33.42
2023-01-21T01:25:55.892Z,35.15
2023-01-21T01:28:25.953Z,36.35
2023-01-21T01:30:55.140Z,39.25
2023-01-21T01:33:24.778Z,39.00
2023-01-21T01:35:54.299Z,33.85
2023-01-21T01:38:27.705Z,38.35
2023-01-21T01:44:49.947Z,30.75
2023-01-21T01:47:25.429Z,36.65
2023-01-21T01:49:53.984Z,37.75
2023-01-21T01:52:27.947Z,40.83
2023-01-21T01:54:59.606Z,39.83
2023-01-21T01:57:40.432Z,42.53
2023-01-21T02:00:13.398Z,43.17
2023-01-21T02:03:08.178Z,42.42
2023-01-21T02:05:38.597Z,41.00
2023-01-21T02:08:12.907Z,39.80
2023-01-21T02:10:41.840Z,40.13
2023-01-21T02:13:11.925Z,43.83
2023-01-21T02:16:02.076Z,41.08
2023-01-21T02:18:44.582Z,33.45
2023-01-21T02:21:46.251Z,35.97
2023-01-21T02:24:36.740Z,36.55
2023-01-21T02:27:37.185Z,37.13
2023-01-21T02:31:11.617Z,38.50
2023-01-21T02:34:16.734Z,33.05
2023-01-21T02:37:06.706Z,37.55
2023-01-21T02:40:08.947Z,32.50
2023-01-21T02:43:09.824Z,34.90
2023-01-21T02:46:14.888Z,24.48
2023-01-21T02:49:29.884Z,32.92
2023-01-21T02:52:12.858Z,35.95
2023-01-21T02:54:40.581Z,32.72
2023-01-21T02:57:17.034Z,39.00
2023-01-21T02:59:58.040Z,37.25
2023-01-21T03:02:51.803Z,38.25
2023-01-21T03:09:10.400Z,38.35
2023-01-21T03:11:39.507Z,34.35
2023-01-21T03:14:53.383Z,30.52
2023-01-21T03:17:41.797Z,34.67
2023-01-21T03:20:29.289Z,37.95
2023-01-21T03:23:28.719Z,37.65
2023-01-21T03:26:00.837Z,35.63
2023-01-21T03:28:33.758Z,29.08
2023-01-21T03:31:35.898Z,35.47
2023-01-21T03:37:11.790Z,34.00
2023-01-21T03:39:52.139Z,29.13
2023-01-21T03:42:21.091Z,32.50
2023-01-21T03:44:49.758Z,35.78
2023-01-21T03:47:31.563Z,30.67
2023-01-21T03:50:21.508Z,29.77
2023-01-21T03:52:55.010Z,34.63
2023-01-21T03:55:24.284Z,32.90
2023-01-21T03:57:51.923Z,35.22
2023-01-21T04:00:20.091Z,36.22
2023-01-21T04:02:50.652Z,28.20
2023-01-21T04:05:19.510Z,33.17
2023-01-21T04:07:47.137Z,34.60
2023-01-21T04:10:15.493Z,34.10
2023-01-21T04:12:53.810Z,30.35
2023-01-21T04:15:22.927Z,27.95
2023-01-21T04:17:51.778Z,33.47
2023-01-21T04:20:20.988Z,33.15
2023-01-21T04:22:50.275Z,31.85
2023-01-21T04:25:20.768Z,35.90
2023-01-21T04:27:53.571Z,33.42
2023-01-21T04:30:22.481Z,34.83
2023-01-21T04:32:53.630Z,36.00
2023-01-21T04:35:23.104Z,32.20
2023-01-21T04:37:53.588Z,32.80
2023-01-21T04:40:21.827Z,36.40
2023-01-21T04:42:49.823Z,33.33
2023-01-21T04:45:18.013Z,37.28
2023-01-21T04:47:45.861Z,33.40
2023-01-21T04:50:15.795Z,32.17
2023-01-21T04:52:46.869Z,35.58
2023-01-21T04:55:14.710Z,31.80
2023-01-21T04:57:42.784Z,31.27
2023-01-21T05:00:12.230Z,30.75
2023-01-21T05:02:39.938Z,33.38
2023-01-21T05:05:16.121Z,33.90
2023-01-21T05:07:46.177Z,28.58
2023-01-21T05:10:18.484Z,25.13
2023-01-21T05:12:46.552Z,31.30
2023-01-21T05:15:15.012Z,26.33
2023-01-21T05:17:43.962Z,28.80
2023-01-21T05:20:14.501Z,31.70
2023-01-21T05:22:48.488Z,31.42
2023-01-21T05:25:18.801Z,31.15
2023-01-21T05:27:55.962Z,32.92
2023-01-21T05:30:23.912Z,31.70
2023-01-21T05:32:56.397Z,32.45
2023-01-21T05:35:27.375Z,25.45
2023-01-21T05:37:58.878Z,31.85
2023-01-21T05:40:31.915Z,29.50
2023-01-21T05:43:00.922Z,30.17
2023-01-21T05:45:30.641Z,26.40
2023-01-21T05:47:59.966Z,33.85
2023-01-21T05:50:27.874Z,27.73
2023-01-21T05:52:56.383Z,33.17
2023-01-21T05:55:28.726Z,28.13
2023-01-21T05:57:59.879Z,30.92
2023-01-21T06:00:35.339Z,31.85
2023-01-21T06:03:04.502Z,30.38
2023-01-21T06:05:36.207Z,33.97
2023-01-21T06:08:06.763Z,34.28
2023-01-21T06:10:35.446Z,32.00
2023-01-21T06:13:12.421Z,32.58
2023-01-21T06:15:41.564Z,34.33
2023-01-21T06:18:10.595Z,31.83
2023-01-21T06:20:39.638Z,26.92
2023-01-21T06:23:08.590Z,33.78
2023-01-21T06:25:37.030Z,31.95
2023-01-21T06:28:07.275Z,32.17
2023-01-21T06:30:34.982Z,22.55
2023-01-21T06:33:08.259Z,31.85
2023-01-21T06:35:37.636Z,32.78
2023-01-21T06:38:05.643Z,33.40
2023-01-21T06:40:33.395Z,30.80
2023-01-21T06:43:01.219Z,35.90
2023-01-21T06:45:31.460Z,35.17
2023-01-21T06:48:02.263Z,29.40
2023-01-21T06:50:31.383Z,32.55
2023-01-21T06:53:01.685Z,21.90
2023-01-21T06:55:33.061Z,25.45
2023-01-21T06:58:00.943Z,30.38
2023-01-21T07:00:28.730Z,31.27
2023-01-21T07:02:58.457Z,36.40
2023-01-21T07:05:27.106Z,35.25
2023-01-21T07:07:55.884Z,32.67
2023-01-21T07:10:26.257Z,35.92
2023-01-21T07:12:54.875Z,33.63
2023-01-21T07:15:24.892Z,40.08
2023-01-21T07:17:54.465Z,37.65
2023-01-21T07:20:26.686Z,36.92
2023-01-21T07:22:54.589Z,39.63
2023-01-21T07:25:24.660Z,36.90
2023-01-21T07:27:52.381Z,42.10
2023-01-21T07:30:22.705Z,34.05
2023-01-21T07:32:51.578Z,42.03
2023-01-21T07:35:20.087Z,40.53
2023-01-21T07:37:48.190Z,40.55
2023-01-21T07:40:18.300Z,41.85
2023-01-21T07:42:55.329Z,45.28
2023-01-21T07:45:29.875Z,36.60
2023-01-21T07:47:59.686Z,40.20
2023-01-21T07:50:30.349Z,39.22
2023-01-21T07:53:05.468Z,44.67
2023-01-21T07:55:43.560Z,44.78
2023-01-21T07:58:13.125Z,42.33
2023-01-21T08:00:47.459Z,37.80
2023-01-21T08:03:15.600Z,42.72
2023-01-21T08:05:43.211Z,36.47
2023-01-21T08:08:11.965Z,37.97
2023-01-21T08:10:44.152Z,38.80
2023-01-21T08:13:13.434Z,40.28
2023-01-21T08:15:47.028Z,42.60
2023-01-21T08:18:22.655Z,43.72
2023-01-21T08:20:55.767Z,35.20
2023-01-21T08:23:23.711Z,40.17
2023-01-21T08:25:51.871Z,34.25
2023-01-21T08:28:20.365Z,33.45
2023-01-21T08:30:51.205Z,42.38
2023-01-21T08:33:19.277Z,34.33
2023-01-21T08:35:50.911Z,42.78
2023-01-21T08:38:18.751Z,39.13
2023-01-21T08:40:50.777Z,43.58
2023-01-21T08:43:22.190Z,39.30
2023-01-21T08:46:01.332Z,39.45
2023-01-21T08:48:31.301Z,41.80
2023-01-21T08:51:01.965Z,42.65
2023-01-21T08:53:30.205Z,42.63
2023-01-21T08:56:02.712Z,42.03
2023-01-21T09:01:20.539Z,40.20
2023-01-21T09:03:50.454Z,39.95
2023-01-21T09:06:20.877Z,38.15
2023-01-21T09:08:49.077Z,44.28
2023-01-21T09:11:41.043Z,43.92
2023-01-21T09:14:11.889Z,36.15
2023-01-21T09:16:39.804Z,44.80
2023-01-21T09:19:09.275Z,44.05
2023-01-21T09:21:38.033Z,46.33
2023-01-21T09:24:08.634Z,38.63
2023-01-21T09:26:44.300Z,40.25
2023-01-21T09:29:12.441Z,36.95
2023-01-21T09:31:41.115Z,36.70
2023-01-21T09:34:10.865Z,38.03
2023-01-21T09:36:48.574Z,35.50
2023-01-21T09:39:16.304Z,41.35
2023-01-21T09:42:04.675Z,37.30
2023-01-21T09:44:47.881Z,39.65
2023-01-21T09:47:50.578Z,40.00
2023-01-21T09:50:26.549Z,42.50
2023-01-21T09:53:08.531Z,41.22
2023-01-21T09:55:50.486Z,37.53
2023-01-21T09:58:59.830Z,40.30
2023-01-21T10:01:41.228Z,39.88
2023-01-21T10:04:43.881Z,39.08
2023-01-21T10:07:38.672Z,39.70
2023-01-21T10:10:50.493Z,41.42
2023-01-21T10:13:41.675Z,43.25
2023-01-21T10:16:57.121Z,36.53
2023-01-21T10:19:41.920Z,37.17
2023-01-21T10:22:43.890Z,38.15
2023-01-21T10:26:04.870Z,37.17
2023-01-21T10:29:19.139Z,37.15
2023-01-21T10:32:08.822Z,38.05
2023-01-21T10:34:56.602Z,38.40
2023-01-21T10:38:01.750Z,38.40
2023-01-21T10:40:52.036Z,32.65
2023-01-21T10:43:51.792Z,38.40
2023-01-21T10:47:02.231Z,36.97
2023-01-21T10:50:02.399Z,33.28
2023-01-21T10:53:05.435Z,37.20
2023-01-21T10:56:28.911Z,36.03
2023-01-21T10:59:32.227Z,33.03
2023-01-21T11:02:10.388Z,28.55
2023-01-21T11:04:52.102Z,32.38
2023-01-21T11:07:29.681Z,31.80
2023-01-21T11:10:08.311Z,33.17
2023-01-21T11:12:42.100Z,32.83
2023-01-21T11:15:40.259Z,29.77
2023-01-21T11:22:20.140Z,26.77
2023-01-21T11:24:52.345Z,25.55
2023-01-21T11:27:41.917Z,27.58
2023-01-21T11:30:48.662Z,28.70
2023-01-21T11:33:43.338Z,26.83
2023-01-21T11:36:36.798Z,27.55
2023-01-21T11:39:13.809Z,27.42
2023-01-21T11:42:00.697Z,24.58
2023-01-21T11:44:38.842Z,28.88
2023-01-21T11:47:41.880Z,27.13
2023-01-21T11:50:35.859Z,28.20
2023-01-21T11:53:23.183Z,26.58
2023-01-21T11:56:09.754Z,25.23
2023-01-21T11:58:42.080Z,27.60
2023-01-21T12:01:22.616Z,24.30
2023-01-21T12:04:07.548Z,26.42
2023-01-21T12:06:37.898Z,25.45
2023-01-21T12:09:26.111Z,23.20
2023-01-21T12:12:24.880Z,25.73
2023-01-21T12:15:17.404Z,24.23
2023-01-21T12:18:33.404Z,26.02
2023-01-21T12:21:01.365Z,23.42
2023-01-21T12:23:41.653Z,27.88
2023-01-21T12:26:41.935Z,27.30
2023-01-21T12:29:57.047Z,25.95
2023-01-21T12:32:37.850Z,26.00
2023-01-21T12:35:31.807Z,26.13
2023-01-21T12:38:12.410Z,28.02
2023-01-21T12:41:27.738Z,25.65
2023-01-21T12:48:02.420Z,26.45
2023-01-21T12:50:41.318Z,28.73
2023-01-21T12:53:44.624Z,30.70
2023-01-21T12:56:30.725Z,26.73
2023-01-21T12:59:53.959Z,26.83
2023-01-21T13:02:54.287Z,26.65
2023-01-21T13:06:05.264Z,29.80
2023-01-21T13:08:40.183Z,26.95
2023-01-21T13:11:27.022Z,26.05
2023-01-21T13:14:07.946Z,26.27
2023-01-21T13:17:33.710Z,24.98
2023-01-21T13:20:34.577Z,23.77
2023-01-21T13:23:20.931Z,21.85
2023-01-21T13:26:09.502Z,24.10
2023-01-21T13:29:11.944Z,22.02
2023-01-21T13:32:12.508Z,20.98
2023-01-21T13:34:56.764Z,27.40
2023-01-21T13:38:18.746Z,20.48
2023-01-21T13:44:16.429Z,26.98
2023-01-21T13:47:16.911Z,20.27
2023-01-21T13:50:05.176Z,17.77
2023-01-21T13:52:46.869Z,20.63
2023-01-21T13:56:24.672Z,20.33
2023-01-21T13:59:20.212Z,17.95
2023-01-21T14:02:15.477Z,16.13
2023-01-21T14:05:07.732Z,18.35
2023-01-21T14:08:18.887Z,18.77
2023-01-21T14:11:03.964Z,17.27
2023-01-21T14:14:22.800Z,19.38
2023-01-21T14:17:49.376Z,20.13
2023-01-21T14:20:56.857Z,18.13
2023-01-21T14:23:48.613Z,16.93
2023-01-21T14:27:03.104Z,16.27
2023-01-21T14:32:55.320Z,16.27
2023-01-21T14:36:15.336Z,18.08
2023-01-21T14:39:09.244Z,18.58
2023-01-21T14:42:26.427Z,21.52
2023-01-21T14:45:15.370Z,20.95
2023-01-21T14:47:53.204Z,17.65
2023-01-21T14:50:53.728Z,18.05
2023-01-21T14:53:57.645Z,17.00
2023-01-21T14:56:40.245Z,17.40
2023-01-21T14:59:38.192Z,19.92
2023-01-21T15:02:36.238Z,18.50
2023-01-21T15:05:17.809Z,18.05
2023-01-21T15:07:49.142Z,18.05
2023-01-21T15:10:38.435Z,19.38
2023-01-21T15:13:30.795Z,20.48
2023-01-21T15:19:11.395Z,19.70
2023-01-21T15:22:03.982Z,18.05
2023-01-21T15:24:37.093Z,20.45
2023-01-21T15:27:33.501Z,22.25
2023-01-21T15:30:04.422Z,19.85
2023-01-21T15:32:57.157Z,18.83
2023-01-21T15:35:41.894Z,19.67
2023-01-21T15:38:28.940Z,16.77
2023-01-21T15:41:14.619Z,21.30
2023-01-21T15:43:57.912Z,20.13
2023-01-21T15:47:15.081Z,20.27
2023-01-21T15:50:49.017Z,19.95
2023-01-21T15:53:38.953Z,16.55
2023-01-21T15:57:08.008Z,17.48
2023-01-21T16:00:04.861Z,17.38
2023-01-21T16:03:00.949Z,16.75
2023-01-21T16:05:51.842Z,18.90
2023-01-21T16:09:16.058Z,18.37
2023-01-21T16:12:20.493Z,19.58
2023-01-21T16:15:27.344Z,17.73
2023-01-21T16:18:32.686Z,20.10
2023-01-21T16:21:34.093Z,15.20
2023-01-21T16:24:11.395Z,18.42
2023-01-21T16:29:24.638Z,19.30
2023-01-21T16:32:06.050Z,19.10
2023-01-21T16:34:46.490Z,18.13
2023-01-21T16:37:30.555Z,19.33
2023-01-21T16:40:30.764Z,20.73
2023-01-21T16:43:28.245Z,22.70
2023-01-21T16:46:11.331Z,25.15
2023-01-21T16:51:33.341Z,19.52
2023-01-21T16:54:50.895Z,22.58
2023-01-21T16:57:30.260Z,29.15
2023-01-21T17:00:29.322Z,27.25
2023-01-21T17:03:19.048Z,25.73
2023-01-21T17:05:59.735Z,26.65
2023-01-21T17:08:45.620Z,22.17
2023-01-21T17:11:25.199Z,27.48
2023-01-21T17:14:18.327Z,25.33
2023-01-21T17:16:50.554Z,25.85
2023-01-21T17:19:43.745Z,28.92
2023-01-21T17:22:26.600Z,21.63
2023-01-21T17:28:59.555Z,22.88
2023-01-21T17:31:39.631Z,19.00
2023-01-21T17:34:25.456Z,25.77
2023-01-21T17:37:08.883Z,30.02
2023-01-21T17:40:03.682Z,26.92
2023-01-21T17:42:41.115Z,29.95
2023-01-21T17:45:46.911Z,29.55
2023-01-21T17:48:28.809Z,33.78
2023-01-21T17:51:39.798Z,31.83
2023-01-21T17:54:25.950Z,27.48
2023-01-21T17:57:09.903Z,28.90
2023-01-21T17:59:50.680Z,30.70
2023-01-21T18:02:29.618Z,29.77
2023-01-21T18:05:08.300Z,24.92
2023-01-21T18:07:38.097Z,29.27
2023-01-21T18:10:19.896Z,29.17
2023-01-21T18:12:50.160Z,29.70
2023-01-21T18:15:23.252Z,32.88
2023-01-21T18:18:06.470Z,27.02
2023-01-21T18:20:41.413Z,26.48
2023-01-21T18:23:25.769Z,29.90
2023-01-21T18:26:00.356Z,24.67
2023-01-21T18:28:32.346Z,27.52
2023-01-21T18:31:05.139Z,28.90
2023-01-21T18:33:33.524Z,23.70
2023-01-21T18:36:02.624Z,27.23
2023-01-21T18:38:33.650Z,27.50
2023-01-21T18:41:21.414Z,33.38
2023-01-21T18:43:50.401Z,29.50
2023-01-21T18:46:22.307Z,26.58
2023-01-21T18:48:50.339Z,24.92
2023-01-21T18:51:30.484Z,22.13
2023-01-21T18:54:01.145Z,28.50
2023-01-21T18:56:38.584Z,25.77
2023-01-21T19:02:00.880Z,28.38
2023-01-21T19:04:31.166Z,27.70
2023-01-21T19:07:00.808Z,29.35
2023-01-21T19:09:29.021Z,25.20
2023-01-21T19:11:58.670Z,24.27
2023-01-21T19:14:32.500Z,27.88
2023-01-21T19:17:03.446Z,28.80
2023-01-21T19:19:34.236Z,23.17
2023-01-21T19:22:08.817Z,31.70
2023-01-21T19:24:37.650Z,34.20
2023-01-21T19:27:09.393Z,26.45
2023-01-21T19:29:38.860Z,22.95
2023-01-21T19:32:08.218Z,26.83
2023-01-21T19:34:38.851Z,28.38
2023-01-21T19:37:13.017Z,21.58
2023-01-21T19:39:41.865Z,27.08
2023-01-21T19:42:13.644Z,23.85
2023-01-21T19:44:41.894Z,31.98
2023-01-21T19:47:28.503Z,27.15
2023-01-21T19:49:57.953Z,26.75
2023-01-21T19:58:38.819Z,28.33
2023-01-21T20:01:08.150Z,32.60
2023-01-21T20:03:54.628Z,28.95
2023-01-21T20:06:39.429Z,27.23
2023-01-21T20:09:16.382Z,25.63
2023-01-21T20:11:49.985Z,28.55
2023-01-21T20:14:25.727Z,30.85
2023-01-21T20:16:57.492Z,29.05
2023-01-21T20:19:28.002Z,28.58
2023-01-21T20:22:02.669Z,29.15
2023-01-21T20:24:34.307Z,30.80
2023-01-21T20:27:13.410Z,27.63
2023-01-21T20:30:02.229Z,29.67
2023-01-21T20:32:36.267Z,26.73
2023-01-21T20:35:07.563Z,29.70
2023-01-21T20:40:36.818Z,31.48
2023-01-21T20:43:07.470Z,34.65
2023-01-21T20:45:50.073Z,35.35
2023-01-21T20:48:41.359Z,31.15
2023-01-21T20:51:10.833Z,31.23
2023-01-21T20:53:49.334Z,35.75
2023-01-21T20:56:41.784Z,34.95
2023-01-21T20:59:13.015Z,33.80
2023-01-21T21:01:42.702Z,32.28
2023-01-21T21:04:11.804Z,35.13
2023-01-21T21:06:41.677Z,35.03
2023-01-21T21:09:10.775Z,32.38
2023-01-21T21:11:40.737Z,32.95
2023-01-21T21:14:10.157Z,34.40
2023-01-21T21:16:46.144Z,34.72
2023-01-21T21:19:16.110Z,34.70
2023-01-21T21:21:44.852Z,34.08
2023-01-21T21:24:22.555Z,36.03
2023-01-21T21:26:51.510Z,33.15
2023-01-21T21:29:23.977Z,35.50
2023-01-21T21:32:05.056Z,30.70
2023-01-21T21:34:38.936Z,30.70
2023-01-21T21:37:15.042Z,30.80
2023-01-21T21:39:46.958Z,34.10
2023-01-21T21:42:37.874Z,32.53
2023-01-21T21:47:52.917Z,32.50
2023-01-21T21:50:22.338Z,30.58
2023-01-21T21:52:50.968Z,31.52
2023-01-21T21:58:41.342Z,31.73
2023-01-21T22:01:25.536Z,30.77
2023-01-21T22:04:07.651Z,30.90
2023-01-21T22:06:41.537Z,31.55
2023-01-21T22:09:12.300Z,33.22
2023-01-21T22:11:43.179Z,32.05
2023-01-21T22:14:13.227Z,33.40
2023-01-21T22:17:02.136Z,32.08
2023-01-21T22:19:31.249Z,31.10
2023-01-21T22:22:05.393Z,32.42
2023-01-21T22:24:33.450Z,33.33
2023-01-21T22:27:01.164Z,31.92
2023-01-21T22:29:30.541Z,30.92
2023-01-21T22:32:01.581Z,31.65
2023-01-21T22:34:30.066Z,31.80
2023-01-21T22:37:17.443Z,32.10
2023-01-21T22:39:45.627Z,32.88
2023-01-21T22:42:16.114Z,32.05
2023-01-21T22:44:52.575Z,32.10
2023-01-21T22:47:22.093Z,31.65
2023-01-21T22:49:52.719Z,32.40
2023-01-21T22:52:21.566Z,28.75
2023-01-21T22:54:51.781Z,29.90
2023-01-21T22:57:19.772Z,28.98
2023-01-21T22:59:48.677Z,29.27
2023-01-21T23:02:25.253Z,28.08
2023-01-21T23:05:27.041Z,28.88
2023-01-21T23:08:06.402Z,29.38
2023-01-21T23:10:37.443Z,31.25
2023-01-21T23:13:06.894Z,31.65
2023-01-21T23:15:37.420Z,28.98
2023-01-21T23:18:12.889Z,26.88
2023-01-21T23:20:45.577Z,28.58
2023-01-21T23:23:15.315Z,27.98
2023-01-21T23:25:48.200Z,28.98
2023-01-21T23:28:25.010Z,28.88
2023-01-21T23:30:54.547Z,26.15
2023-01-21T23:33:23.237Z,24.83
2023-01-21T23:35:57.576Z,27.90
2023-01-21T23:38:31.641Z,28.67
2023-01-21T23:41:09.902Z,29.55
2023-01-21T23:43:47.276Z,25.55
2023-01-21T23:46:27.333Z,22.88
2023-01-21T23:49:02.138Z,23.45
2023-01-21T23:51:31.710Z,25.10
2023-01-21T23:54:05.659Z,26.65
2023-01-21T23:56:34.636Z,25.40
2023-01-21T23:59:02.428Z,27.00
